• Join FlightAware (Why Join?)
  • Login
  • US Flag 
07:49AM EDT


 

Airport Tracker/Info


-or-


 

Live Flight TrackerFlight Track Log ✈ FIN666 ✈ 08-Jun-2014 ✈ EKCH / CPH - EFHK / HEL

Flight Track Log - Related Links

Times and Time Zones

All times are in EDT time to prevent confusion due to time zone crossing. See the FIN666 flight status page for this flight to view local times or setup timezone preferences in your user account.

Time Position Orientation Groundspeed Altitude Reporting Facility
EDT Latitude Longitude Course Direction KTS MPH feet Rate Location/Type
07:31AM 55.8244 13.0824 49° Northeast  Level Estimated
07:32AM 55.8929 13.2255 49° Northeast  Level Estimated
07:33AM 55.9613 13.3692 50° Northeast  Level Estimated
07:34AM 56.0294 13.5134 50° Northeast  Level Estimated
07:35AM 56.1022 13.6682 50° Northeast  Level Estimated
07:36AM 56.1748 13.8237 50° Northeast  Level Estimated
07:37AM 56.2472 13.9797 50° Northeast  Level Estimated
07:38AM 56.3194 14.1364 50° Northeast  Level Estimated
07:39AM 56.3914 14.2936 50° Northeast  Level Estimated
07:40AM 56.4632 14.4515 50° Northeast  Level Estimated
07:41AM 56.5348 14.6099 51° Northeast  Level Estimated
07:42AM 56.6062 14.7689 51° Northeast  Level Estimated
07:43AM 56.6773 14.9285 51° Northeast  Level Estimated
07:44AM 56.7483 15.0888 51° Northeast  Level Estimated
07:45AM 56.8191 15.2496 51° Northeast  Level Estimated
07:46AM 56.8897 15.4110 51° Northeast  Level Estimated
07:47AM 56.9600 15.5731 51° Northeast  Level Estimated
07:48AM 57.0302 15.7358 52° Northeast  Level Estimated
07:49AM 57.1001 15.8991 52° Northeast  Level Estimated
07:50AM 57.1698 16.0630 52° Northeast  Level Estimated
07:51AM 57.2394 16.2275 52° Northeast  Level Estimated
07:52AM 57.3087 16.3926 52° Northeast  Level Estimated
07:53AM 57.3777 16.5584 52° Northeast  Level Estimated
07:54AM 57.4466 16.7248 52° Northeast  Level Estimated
07:55AM 57.5152 16.8918 53° Northeast  Level Estimated
07:56AM 57.5836 17.0594 53° Northeast  Level Estimated
07:57AM 57.6519 17.2277 53° Northeast  Level Estimated
07:58AM 57.7198 17.3966 53° Northeast  Level Estimated
07:59AM 57.7876 17.5661 53° Northeast  Level Estimated
08:00AM 57.8551 17.7363 53° Northeast  Level Estimated
08:01AM 57.9224 17.9071 53° Northeast  Level Estimated
08:02AM 57.9894 18.0786 54° Northeast  Level Estimated
08:03AM 58.0563 18.2506 54° Northeast  Level Estimated
08:04AM 58.1229 18.4234 54° Northeast  Level Estimated
08:05AM 58.1892 18.5968 54° Northeast  Level Estimated
08:06AM 58.2553 18.7708 54° Northeast  Level Estimated
08:07AM 58.3212 18.9455 54° Northeast  Level Estimated
08:08AM 58.3869 19.1208 54° Northeast  Level Estimated
08:09AM 58.4523 19.2968 55° Northeast  Level Estimated
08:10AM 58.5175 19.4734 55° Northeast  Level Estimated
08:11AM 58.5824 19.6507 55° Northeast  Level Estimated
08:12AM 58.6471 19.8287 55° Northeast  Level Estimated
08:13AM 58.7115 20.0073 55° Northeast  Level Estimated
08:14AM 58.7757 20.1866 55° Northeast  Level Estimated
08:15AM 58.8396 20.3665 55° Northeast  Level Estimated
08:16AM 58.9033 20.5471 56° Northeast  Level Estimated
08:17AM 58.9667 20.7284 56° Northeast  Level Estimated
08:18AM 59.0299 20.9103 56° Northeast  Level Estimated
08:19AM 59.0928 21.0929 56° Northeast  Level Estimated
08:20AM 59.1555 21.2762 56° Northeast  Level Estimated
08:21AM 59.2179 21.4601 56° Northeast  Level Estimated
08:22AM 59.2800 21.6447 57° Northeast  Level Estimated
08:23AM 59.3419 21.8300 57° Northeast  Level Estimated
08:24AM 59.4035 22.0160 57° Northeast  Level Estimated
08:25AM 59.4649 22.2026 57° Northeast  Level Estimated
08:26AM 59.5260 22.3899 57° Northeast  Level Estimated
08:27AM 59.5868 22.5779 57° Northeast  Level Estimated
08:28AM 59.6473 22.7666 58° Northeast  Level Estimated
08:29AM 59.7076 22.9560 58° Northeast  Level Estimated
08:30AM 59.7676 23.1460 58° Northeast  Level Estimated
08:31AM 59.8273 23.3367 58° Northeast  Level Estimated
08:32AM 59.8868 23.5281 58° Northeast  Level Estimated
08:33AM 59.9460 23.7202 58° Northeast  Level Estimated
08:34AM 60.0048 23.9130 59° Northeast  Level Estimated
08:35AM 60.0635 24.1064 59° Northeast  Level Estimated
08:36AM 60.1218 24.3006 59° Northeast  Level Estimated
08:37AM 60.1798 24.4954 59° Northeast  Level Estimated
08:38AM 60.2376 24.6909 59° Northeast  Level Estimated
08:39AM 60.2950 24.8871 59° Northeast  Level Estimated
08:40AM 60.3172 24.9633 60° Northeast  Level Estimated
08:41AM 60.3172 24.9633 North  Level Estimated
08:42AM 60.3172 24.9633 North  Level Estimated
08:43AM 60.3172 24.9633 North  Level Estimated
08:44AM 60.3172 24.9633 North  Level Estimated
08:45AM 60.3172 24.9633 North  Level Estimated
08:46AM 60.3172 24.9633 North  Level Estimated
08:47AM 60.3172 24.9633 North  Level Estimated
08:48AM 60.3172 24.9633 North  Level Estimated
08:49AM 60.3172 24.9633 North  Level Estimated
08:50AM 60.3172 24.9633 North  Level Estimated
08:51AM 60.3172 24.9633 North  Level Estimated